Time;durP1;ratioP1;P1;durP2;ratioP2;P2;SDS_P1;SDS_P2;PMS_P1;PMS_P2;Temp;Humidity;BMP_temperature;BMP_pressure;BME280_temperature;BME280_humidity;BME280_pressure;Samples;Min_cycle;Max_cycle;Signal;HPM_P1;HPM_P2
2023/12/05 00:01:24;;;;;;;15.35;8.95;;;;;;;-142.91;0.00;100169.13;5054462;28;20253;-76
2023/12/05 00:03:52;;;;;;;13.77;9.25;;;;;;;-142.91;0.00;100169.13;5046809;28;20286;-75
2023/12/05 00:06:19;;;;;;;17.10;10.57;;;;;;;-142.91;0.00;100169.13;5047865;28;20283;-73
2023/12/05 00:08:45;;;;;;;17.77;10.23;;;;;;;-142.91;0.00;100169.13;5046758;28;20282;-76
2023/12/05 00:11:12;;;;;;;9.15;8.02;;;;;;;-142.91;0.00;100169.13;5048566;28;20302;-74
2023/12/05 00:13:39;;;;;;;10.75;7.70;;;;;;;-142.91;0.00;100169.13;5048355;28;20688;-75
2023/12/05 00:16:07;;;;;;;49.33;10.30;;;;;;;-142.91;0.00;100169.13;5049945;28;20297;-75
2023/12/05 00:18:37;;;;;;;12.60;9.43;;;;;;;-142.91;0.00;100169.13;5053058;28;20240;-73
2023/12/05 00:21:06;;;;;;;12.05;8.35;;;;;;;-142.91;0.00;100169.13;5058054;28;20218;-74
2023/12/05 00:23:34;;;;;;;11.18;8.18;;;;;;;23.25;0.00;100169.13;5054673;28;20270;-73
2023/12/05 00:26:16;;;;;;;14.10;9.85;;;;;;;-142.91;0.00;100169.13;5065828;28;20231;-74
2023/12/05 00:28:43;;;;;;;14.35;7.78;;;;;;;-142.91;0.00;100169.13;5061575;28;20238;-75
2023/12/05 00:31:09;;;;;;;8.98;6.45;;;;;;;-142.91;0.00;100169.13;5068751;28;20206;-75
2023/12/05 00:33:42;;;;;;;9.52;8.38;;;;;;;-142.91;0.00;100169.13;5067428;28;20229;-74
2023/12/05 00:36:17;;;;;;;9.57;7.90;;;;;;;-142.91;0.00;100169.13;5062355;28;20218;-75
2023/12/05 00:38:48;;;;;;;9.90;6.97;;;;;;;-142.91;0.00;100169.13;5054376;28;20229;-73
2023/12/05 00:44:02;;;;;;;8.25;7.18;;;;;;;23.57;0.00;100169.13;5056476;28;20207;-72
2023/12/05 00:46:30;;;;;;;10.18;7.00;;;;;;;-142.91;0.00;100169.13;5063678;28;20209;-75
2023/12/05 00:48:57;;;;;;;10.23;6.43;;;;;;;-142.91;0.00;100169.13;5053997;28;20275;-74
2023/12/05 00:51:50;;;;;;;5.95;5.43;;;;;;;-142.91;0.00;100169.13;5045677;28;20222;-74
2023/12/05 00:54:22;;;;;;;8.20;6.57;;;;;;;-142.91;0.00;100169.13;5054793;28;20268;-73
2023/12/05 00:56:52;;;;;;;7.07;5.10;;;;;;;-142.91;0.00;100169.13;5055984;28;20215;-74
2023/12/05 00:59:24;;;;;;;7.53;6.78;;;;;;;23.41;0.00;100169.13;5043729;28;20200;-74
2023/12/05 01:01:52;;;;;;;9.63;6.28;;;;;;;-142.91;0.00;100169.13;5051337;28;20237;-75
2023/12/05 01:04:23;;;;;;;5.00;4.53;;;;;;;-142.91;0.00;100169.13;5036493;28;20281;-72
2023/12/05 01:06:53;;;;;;;7.00;6.30;;;;;;;23.57;0.00;100169.13;5021704;28;20202;-73
2023/12/05 01:09:22;;;;;;;7.63;6.03;;;;;;;23.29;0.00;100169.13;5058622;28;20246;-74
2023/12/05 01:11:49;;;;;;;5.28;4.88;;;;;;;-142.91;0.00;100169.13;5043213;28;20199;-76
2023/12/05 01:14:17;;;;;;;10.77;6.47;;;;;;;23.41;0.00;100169.13;5056165;28;20195;-74
2023/12/05 01:16:44;;;;;;;6.60;6.00;;;;;;;-142.91;0.00;100169.13;5049366;28;20318;-73
2023/12/05 01:19:10;;;;;;;7.60;6.85;;;;;;;-142.91;0.00;100169.13;5047978;28;20198;-76
2023/12/05 01:21:37;;;;;;;8.57;6.18;;;;;;;-142.91;0.00;100169.13;5052493;28;20199;-74
2023/12/05 01:24:16;;;;;;;6.57;5.97;;;;;;;-142.91;0.00;100169.13;5034197;28;20303;-74
2023/12/05 01:26:55;;;;;;;6.13;5.53;;;;;;;24.55;0.00;100169.13;5039986;28;20244;-71
2023/12/05 01:29:21;;;;;;;5.85;5.28;;;;;;;23.25;0.00;100169.13;5021749;28;20210;-74
2023/12/05 01:31:48;;;;;;;5.82;5.18;;;;;;;;;;5031281;28;20247;-75
2023/12/05 01:34:15;;;;;;;5.13;4.63;;;;;;;-142.91;0.00;100169.13;5011623;28;20321;-75
2023/12/05 01:36:42;;;;;;;6.40;4.70;;;;;;;-142.91;0.00;100169.13;5031570;28;20311;-76
2023/12/05 01:39:12;;;;;;;6.47;5.80;;;;;;;-142.91;0.00;100169.13;5028152;28;20235;-76
2023/12/05 01:41:39;;;;;;;6.05;5.45;;;;;;;-142.91;0.00;100169.13;5029299;28;20711;-76
2023/12/05 01:44:05;;;;;;;10.00;5.93;;;;;;;23.25;0.00;100169.13;5027836;28;20291;-74
2023/12/05 01:46:32;;;;;;;5.63;4.88;;;;;;;23.26;0.00;100169.13;5028955;28;20231;-74
2023/12/05 01:49:00;;;;;;;7.78;5.13;;;;;;;-142.91;0.00;100169.13;5027797;28;20326;-75
2023/12/05 01:51:28;;;;;;;8.07;4.97;;;;;;;-142.91;0.00;100169.13;5028012;28;20218;-75
2023/12/05 01:53:56;;;;;;;6.65;5.10;;;;;;;23.25;0.00;100169.13;5025094;28;20772;-75
2023/12/05 01:56:24;;;;;;;6.30;4.90;;;;;;;23.25;0.00;100169.13;5025943;28;20896;-73
2023/12/05 01:58:54;;;;;;;6.45;5.15;;;;;;;;;;5024475;28;20231;-75
2023/12/05 02:01:21;;;;;;;5.88;5.43;;;;;;;-142.91;0.00;100169.13;5031036;28;20230;-75
2023/12/05 02:03:49;;;;;;;10.27;4.88;;;;;;;-142.91;0.00;100169.13;5029194;28;20288;-74
2023/12/05 02:06:18;;;;;;;6.65;4.97;;;;;;;-142.91;0.00;100169.13;5009878;28;20218;-75
2023/12/05 02:08:47;;;;;;;5.88;4.95;;;;;;;-142.91;0.00;100169.13;5012305;28;20524;-75
2023/12/05 02:11:15;;;;;;;5.35;4.95;;;;;;;23.25;0.00;100169.13;5044151;28;20230;-74
2023/12/05 02:13:51;;;;;;;4.55;3.75;;;;;;;;;;5020942;28;20246;-72
2023/12/05 02:16:29;;;;;;;6.45;5.20;;;;;;;23.25;0.00;100169.13;5038875;28;20684;-76
2023/12/05 02:19:11;;;;;;;5.18;4.68;;;;;;;-142.91;0.00;100169.13;5042255;28;20222;-74
2023/12/05 02:21:43;;;;;;;5.82;3.90;;;;;;;23.25;0.00;100169.13;5039912;28;20257;-75
2023/12/05 02:24:38;;;;;;;8.70;5.70;;;;;;;23.25;0.00;100169.13;5043778;28;20219;-76
2023/12/05 02:27:24;;;;;;;5.82;5.10;;;;;;;23.25;0.00;100169.13;5041571;28;20732;-75
2023/12/05 02:29:53;;;;;;;5.45;4.32;;;;;;;-142.91;0.00;100169.13;5034232;28;20270;-75
2023/12/05 02:32:29;;;;;;;4.57;4.20;;;;;;;23.25;0.00;100169.13;5041046;28;20635;-73
2023/12/05 02:34:57;;;;;;;4.97;4.57;;;;;;;23.25;0.00;100169.13;5017538;28;20687;-76
2023/12/05 02:37:33;;;;;;;4.13;3.60;;;;;;;23.25;0.00;100169.13;5041903;28;20254;-76
2023/12/05 02:40:07;;;;;;;6.40;4.93;;;;;;;23.25;0.00;100169.13;5026472;28;20664;-77
2023/12/05 02:42:45;;;;;;;4.93;4.45;;;;;;;23.25;0.00;100169.13;5039182;28;20194;-73
2023/12/05 02:45:31;;;;;;;4.60;4.25;;;;;;;23.26;0.00;100169.13;5039493;28;20203;-72
2023/12/05 02:48:03;;;;;;;5.22;4.22;;;;;;;23.26;0.00;100169.13;5027657;28;20637;-76
2023/12/05 02:50:30;;;;;;;5.60;4.53;;;;;;;23.25;0.00;100169.13;5043124;28;20195;-76
2023/12/05 02:53:00;;;;;;;6.90;5.82;;;;;;;-142.91;0.00;100169.13;5041955;28;20238;-78
2023/12/05 02:55:27;;;;;;;4.10;3.88;;;;;;;-142.91;0.00;100169.13;5022136;28;20203;-76
2023/12/05 02:58:05;;;;;;;6.68;4.88;;;;;;;-142.91;0.00;100169.13;5045575;28;20224;-75
2023/12/05 03:00:33;;;;;;;4.80;3.85;;;;;;;-142.91;0.00;100169.13;5022412;28;20215;-72
2023/12/05 03:02:59;;;;;;;9.20;4.93;;;;;;;-142.91;0.00;100169.13;5040658;28;20196;-75
2023/12/05 03:05:40;;;;;;;4.80;4.40;;;;;;;-142.91;0.00;100169.13;5045331;28;20227;-72
2023/12/05 03:08:13;;;;;;;5.10;4.60;;;;;;;-142.91;0.00;100169.13;5051255;28;20198;-75
2023/12/05 03:10:40;;;;;;;4.50;4.10;;;;;;;-142.91;0.00;100169.13;5045265;28;20223;-75
2023/12/05 03:13:06;;;;;;;8.02;5.30;;;;;;;-142.91;0.00;100169.13;5044942;28;20199;-77
2023/12/05 03:15:35;;;;;;;4.10;3.72;;;;;;;-142.91;0.00;100169.13;5046572;28;20207;-74
2023/12/05 03:18:02;;;;;;;8.30;5.18;;;;;;;23.25;0.00;100169.13;5039275;28;20298;-75
2023/12/05 03:20:29;;;;;;;6.35;5.20;;;;;;;-142.91;0.00;100169.13;5045794;28;20281;-74
2023/12/05 03:22:55;;;;;;;6.03;5.35;;;;;;;;;;5048782;28;20326;-75
2023/12/05 03:25:22;;;;;;;7.72;5.38;;;;;;;-142.91;0.00;100169.13;5048391;28;20306;-76
2023/12/05 03:27:49;;;;;;;5.55;5.05;;;;;;;-142.91;0.00;100169.13;5049440;28;20232;-75
2023/12/05 03:30:16;;;;;;;5.78;5.13;;;;;;;-142.91;0.00;100169.13;5052407;28;20256;-76
2023/12/05 03:32:46;;;;;;;6.72;5.28;;;;;;;-142.91;0.00;100169.13;5036518;28;20221;-74
2023/12/05 03:35:13;;;;;;;7.60;5.57;;;;;;;-142.91;0.00;100169.13;5052055;28;20245;-73
2023/12/05 03:37:39;;;;;;;5.55;3.97;;;;;;;-142.91;0.00;100169.13;5052306;28;20292;-73
2023/12/05 03:40:09;;;;;;;4.00;3.67;;;;;;;-142.91;0.00;100169.13;5020657;28;20469;-75
2023/12/05 03:42:37;;;;;;;6.95;4.47;;;;;;;-142.91;0.00;100169.13;5054196;28;20282;-75
2023/12/05 03:45:04;;;;;;;5.85;5.15;;;;;;;-142.91;0.00;100169.13;5052348;28;20231;-75
2023/12/05 03:47:30;;;;;;;5.32;4.82;;;;;;;-142.91;0.00;100169.13;5046139;28;20294;-76
2023/12/05 03:50:00;;;;;;;4.28;3.67;;;;;;;23.25;0.00;100169.13;5054490;28;20207;-74
2023/12/05 03:52:27;;;;;;;5.72;4.95;;;;;;;-142.91;0.00;100169.13;5053459;28;20199;-73
2023/12/05 03:54:53;;;;;;;5.22;4.32;;;;;;;23.25;0.00;100169.13;5050200;28;20234;-75
2023/12/05 03:57:20;;;;;;;5.53;5.03;;;;;;;23.25;0.00;100169.13;5051075;28;20227;-78
2023/12/05 03:59:47;;;;;;;6.05;4.55;;;;;;;23.26;0.00;100169.13;5053182;28;20655;-75
2023/12/05 04:02:13;;;;;;;5.22;4.78;;;;;;;;;;5051515;28;20686;-76
2023/12/05 04:04:40;;;;;;;5.57;5.03;;;;;;;23.29;0.00;100169.13;5052113;28;20257;-74
2023/12/05 04:07:09;;;;;;;5.35;4.82;;;;;;;-142.91;0.00;100169.13;5052936;28;20235;-73
2023/12/05 04:09:36;;;;;;;5.38;4.97;;;;;;;-142.91;0.00;100169.13;5049692;28;20298;-73
2023/12/05 04:12:03;;;;;;;9.02;5.38;;;;;;;23.26;0.00;100169.13;5050326;28;20195;-73
2023/12/05 04:14:30;;;;;;;5.45;5.05;;;;;;;-142.91;0.00;100169.13;5052104;28;20259;-75
2023/12/05 04:16:57;;;;;;;6.47;4.55;;;;;;;23.25;0.00;100169.13;5052300;28;20290;-74
2023/12/05 04:19:23;;;;;;;5.50;5.00;;;;;;;23.25;0.00;100169.13;5049950;28;20199;-76
2023/12/05 04:21:50;;;;;;;6.68;4.95;;;;;;;23.27;0.00;100169.13;5037938;28;20211;-74
2023/12/05 04:24:18;;;;;;;5.75;4.95;;;;;;;23.33;0.00;100169.13;5049701;28;20636;-76
2023/12/05 04:26:45;;;;;;;3.53;3.33;;;;;;;-142.91;0.00;100169.13;5048443;28;20772;-74
2023/12/05 04:29:12;;;;;;;5.82;5.25;;;;;;;-142.91;0.00;100169.13;5050204;28;20242;-73
2023/12/05 04:31:39;;;;;;;5.85;5.32;;;;;;;23.25;0.00;100169.13;5050135;28;20755;-78
2023/12/05 04:34:06;;;;;;;5.55;5.00;;;;;;;23.29;0.00;100169.13;5053160;28;20207;-74
2023/12/05 04:36:32;;;;;;;5.97;5.38;;;;;;;23.25;0.00;100169.13;5034425;28;20202;-75
2023/12/05 04:38:59;;;;;;;5.75;5.32;;;;;;;23.26;0.00;100169.13;5052469;28;20226;-76
2023/12/05 04:41:33;;;;;;;6.47;5.88;;;;;;;23.29;0.00;100169.13;5051726;28;20742;-75
2023/12/05 04:44:00;;;;;;;7.75;5.15;;;;;;;23.26;0.00;100169.13;5055163;28;20242;-75
2023/12/05 04:46:27;;;;;;;9.23;5.85;;;;;;;23.26;0.00;100169.13;5050501;28;20199;-76
2023/12/05 04:48:53;;;;;;;6.03;5.20;;;;;;;23.25;0.00;100169.13;5051705;28;20207;-76
2023/12/05 04:51:21;;;;;;;5.18;4.78;;;;;;;-142.91;0.00;100169.13;5051076;28;20286;-77
2023/12/05 04:53:48;;;;;;;6.15;5.63;;;;;;;23.25;0.00;100169.13;5036098;28;20320;-73
2023/12/05 04:56:17;;;;;;;6.30;5.60;;;;;;;23.29;0.00;100169.13;5051095;28;20298;-73
2023/12/05 04:58:45;;;;;;;6.75;6.00;;;;;;;23.26;0.00;100169.13;5053367;28;20272;-77
2023/12/05 05:01:12;;;;;;;6.43;5.35;;;;;;;23.41;0.00;100169.13;5051458;28;20241;-75
2023/12/05 05:03:39;;;;;;;6.55;5.88;;;;;;;23.90;0.00;100169.13;5051051;28;20261;-73
2023/12/05 05:06:05;;;;;;;6.97;6.25;;;;;;;;;;5049689;28;20223;-76
2023/12/05 05:08:32;;;;;;;8.75;6.35;;;;;;;-142.91;0.00;100169.13;5049183;28;20616;-74
2023/12/05 05:10:59;;;;;;;6.93;6.22;;;;;;;23.25;0.00;100169.13;5049357;28;20273;-74
2023/12/05 05:13:26;;;;;;;5.95;5.40;;;;;;;-142.91;0.00;100169.13;5053424;28;20203;-73
2023/12/05 05:15:54;;;;;;;8.68;6.35;;;;;;;23.29;0.00;100169.13;5051561;28;20237;-75
2023/12/05 05:18:21;;;;;;;7.20;6.43;;;;;;;-142.91;0.00;100169.13;5031550;28;20229;-77
2023/12/05 05:20:48;;;;;;;7.80;5.85;;;;;;;;;;5051300;28;20198;-75
2023/12/05 05:23:14;;;;;;;6.65;5.72;;;;;;;23.26;0.00;100169.13;5046374;28;20799;-75
2023/12/05 05:25:41;;;;;;;21.38;11.98;;;;;;;-142.91;0.00;100169.13;5048369;28;20238;-73
2023/12/05 05:28:09;;;;;;;30.80;16.77;;;;;;;23.25;0.00;100169.13;5041775;28;20728;-76
2023/12/05 05:30:35;;;;;;;32.65;17.30;;;;;;;23.26;0.00;100169.13;5047317;28;20203;-76
2023/12/05 05:33:03;;;;;;;22.35;13.85;;;;;;;-142.91;0.00;100169.13;5047596;28;20264;-75
2023/12/05 05:35:30;;;;;;;12.43;7.88;;;;;;;23.29;0.00;100169.13;5047229;28;20269;-74
2023/12/05 05:37:59;;;;;;;9.43;6.80;;;;;;;23.26;0.00;100169.13;5028390;28;21087;-76
2023/12/05 05:40:27;;;;;;;9.25;6.47;;;;;;;23.29;0.00;100169.13;5046986;28;20222;-76
2023/12/05 05:42:54;;;;;;;7.60;6.53;;;;;;;23.33;0.00;100169.13;5047548;28;20222;-77
2023/12/05 05:45:20;;;;;;;8.98;6.93;;;;;;;23.27;0.00;100169.13;5045600;28;20227;-76
2023/12/05 05:47:47;;;;;;;33.75;18.63;;;;;;;23.26;0.00;100169.13;5045410;28;20278;-76
2023/12/05 05:50:15;;;;;;;12.77;9.13;;;;;;;23.33;0.00;100169.13;5046996;28;20240;-76
2023/12/05 05:52:43;;;;;;;9.80;7.32;;;;;;;23.25;0.00;100169.13;5046012;28;20233;-74
2023/12/05 05:55:09;;;;;;;9.55;7.00;;;;;;;;;;5045544;28;20206;-76
2023/12/05 05:57:36;;;;;;;12.68;6.53;;;;;;;23.29;0.00;100169.13;5045526;28;20310;-74
2023/12/05 06:00:03;;;;;;;7.80;6.82;;;;;;;-142.91;0.00;100169.13;5046329;28;20206;-76
2023/12/05 06:02:30;;;;;;;7.20;6.50;;;;;;;23.25;0.00;100169.13;5043607;28;20217;-76
2023/12/05 06:04:57;;;;;;;7.72;6.65;;;;;;;23.25;0.00;100169.13;5044832;28;20310;-76
2023/12/05 06:07:25;;;;;;;10.60;6.63;;;;;;;23.29;0.00;100169.13;5045152;28;20206;-76
2023/12/05 06:09:52;;;;;;;7.75;6.82;;;;;;;23.25;0.00;100169.13;5044867;28;20249;-75
2023/12/05 06:12:19;;;;;;;7.93;6.88;;;;;;;23.33;0.00;100169.13;5029198;28;20214;-75
2023/12/05 06:14:45;;;;;;;11.70;6.28;;;;;;;-142.91;0.00;100169.13;5044312;28;20289;-75
2023/12/05 06:17:12;;;;;;;7.50;6.68;;;;;;;23.25;0.00;100169.13;5046239;28;20329;-76
2023/12/05 06:19:38;;;;;;;8.68;6.63;;;;;;;-142.91;0.00;100169.13;5046681;28;20651;-75
2023/12/05 06:22:08;;;;;;;7.50;6.63;;;;;;;23.26;0.00;100169.13;5047243;28;20330;-76
2023/12/05 06:24:36;;;;;;;8.35;7.07;;;;;;;23.26;0.00;100169.13;5044544;28;20206;-75
2023/12/05 06:27:04;;;;;;;8.18;6.95;;;;;;;23.25;0.00;100169.13;5045032;28;20203;-76
2023/12/05 06:29:31;;;;;;;12.15;6.82;;;;;;;23.26;0.00;100169.13;5045525;28;20195;-75
2023/12/05 06:31:58;;;;;;;10.77;7.30;;;;;;;23.27;0.00;100169.13;5048600;28;20231;-75
2023/12/05 06:34:26;;;;;;;9.30;7.25;;;;;;;23.25;0.00;100169.13;5030579;28;20204;-76
2023/12/05 06:36:52;;;;;;;12.07;7.93;;;;;;;23.25;0.00;100169.13;5047912;28;20234;-75
2023/12/05 06:39:19;;;;;;;9.27;8.23;;;;;;;23.25;0.00;100169.13;5045998;28;20659;-76
2023/12/05 06:41:47;;;;;;;12.10;8.52;;;;;;;-142.91;0.00;100169.13;5047516;28;20227;-75
2023/12/05 06:44:13;;;;;;;9.73;7.90;;;;;;;23.25;0.00;100169.13;5043966;28;20245;-77
2023/12/05 06:46:40;;;;;;;12.05;7.93;;;;;;;23.26;0.00;100169.13;5045570;28;20330;-77
2023/12/05 06:49:06;;;;;;;11.10;6.45;;;;;;;;;;5044849;28;20286;-78
2023/12/05 06:51:33;;;;;;;10.40;7.60;;;;;;;23.25;0.00;100169.13;5045689;28;20309;-76
2023/12/05 06:54:00;;;;;;;11.02;7.82;;;;;;;23.27;0.00;100169.13;5043666;28;20697;-78
2023/12/05 06:56:26;;;;;;;8.52;7.25;;;;;;;23.26;0.00;100169.13;5038856;28;20652;-76
2023/12/05 06:58:56;;;;;;;12.30;7.38;;;;;;;23.26;0.00;100169.13;5043994;28;20314;-76
2023/12/05 07:01:23;;;;;;;13.40;9.05;;;;;;;23.25;0.00;100169.13;5045465;28;20746;-77
2023/12/05 07:03:50;;;;;;;20.20;12.68;;;;;;;-142.91;0.00;100169.13;5044404;28;20730;-78
2023/12/05 07:06:16;;;;;;;15.00;10.50;;;;;;;23.25;0.00;100169.13;5027658;28;20206;-75
2023/12/05 07:08:43;;;;;;;12.75;9.40;;;;;;;23.25;0.00;100169.13;5046041;28;20245;-76
2023/12/05 07:11:14;;;;;;;12.48;9.18;;;;;;;23.27;0.00;100169.13;5046842;28;20210;-80
2023/12/05 07:13:41;;;;;;;13.05;8.02;;;;;;;23.27;0.00;100169.13;5050123;28;20353;-76
2023/12/05 07:16:10;;;;;;;14.88;7.70;;;;;;;23.26;0.00;100169.13;5048216;28;20230;-76
2023/12/05 07:18:37;;;;;;;15.02;8.18;;;;;;;23.25;0.00;100169.13;5046860;28;20732;-78
2023/12/05 07:21:09;;;;;;;9.02;7.45;;;;;;;-142.91;0.00;100169.13;5048017;28;20203;-77
2023/12/05 07:23:35;;;;;;;8.95;7.43;;;;;;;23.26;0.00;100169.13;5047130;28;20318;-77
2023/12/05 07:26:03;;;;;;;13.48;7.60;;;;;;;23.25;0.00;100169.13;5049254;28;20260;-78
2023/12/05 07:31:15;;;;;;;10.80;7.13;;;;;;;-142.91;0.00;100169.13;5047253;28;20294;-79
2023/12/05 07:33:42;;;;;;;13.30;7.30;;;;;;;-142.91;0.00;100169.13;5046967;28;20235;-78
2023/12/05 07:36:12;;;;;;;10.77;6.97;;;;;;;-142.91;0.00;100169.13;5044298;28;20231;-77
2023/12/05 07:38:39;;;;;;;10.20;8.15;;;;;;;-142.91;0.00;100169.13;5044924;28;20223;-77
2023/12/05 07:41:06;;;;;;;16.60;7.18;;;;;;;-142.91;0.00;100169.13;5046682;28;20219;-78
2023/12/05 07:43:33;;;;;;;7.95;7.15;;;;;;;-142.91;0.00;100169.13;5048816;28;20230;-77
2023/12/05 07:45:59;;;;;;;14.35;8.60;;;;;;;23.25;0.00;100169.13;5048648;28;20278;-79
2023/12/05 07:48:27;;;;;;;12.30;7.88;;;;;;;-142.91;0.00;100169.13;5048398;28;20249;-78
2023/12/05 07:50:54;;;;;;;11.27;7.90;;;;;;;-142.91;0.00;100169.13;5048901;28;20246;-79
2023/12/05 07:53:20;;;;;;;11.65;7.65;;;;;;;-142.91;0.00;100169.13;5050056;28;20263;-80
2023/12/05 07:55:47;;;;;;;12.80;8.60;;;;;;;23.25;0.00;100169.13;5049019;28;20249;-79
2023/12/05 07:58:18;;;;;;;11.65;8.75;;;;;;;-142.91;0.00;100169.13;5030667;28;20318;-78
2023/12/05 08:00:47;;;;;;;13.98;9.80;;;;;;;23.26;0.00;100169.13;5047961;28;20199;-76
2023/12/05 08:03:14;;;;;;;12.63;9.07;;;;;;;23.26;0.00;100169.13;5048005;28;20337;-77
2023/12/05 08:05:42;;;;;;;17.67;10.18;;;;;;;23.26;0.00;100169.13;5047443;28;20206;-78
2023/12/05 08:08:16;;;;;;;18.73;9.98;;;;;;;-142.91;0.00;100169.13;5047962;28;20635;-79
2023/12/05 08:10:45;;;;;;;13.98;9.57;;;;;;;-142.91;0.00;100169.13;5048458;28;20297;-79
2023/12/05 08:13:12;;;;;;;14.98;11.07;;;;;;;-142.91;0.00;100169.13;5052145;28;20576;-76
2023/12/05 08:15:40;;;;;;;12.57;10.20;;;;;;;-142.91;0.00;100169.13;5056982;28;20199;-76
2023/12/05 08:18:06;;;;;;;23.13;12.13;;;;;;;-142.91;0.00;100169.13;5053988;28;20199;-77
2023/12/05 08:20:33;;;;;;;18.52;12.20;;;;;;;-142.91;0.00;100169.13;5052459;28;20199;-77
2023/12/05 08:23:01;;;;;;;18.88;14.27;;;;;;;23.29;0.00;100169.13;5034471;28;20294;-77
2023/12/05 08:25:28;;;;;;;17.73;11.27;;;;;;;23.25;0.00;100169.13;5049161;28;20290;-76
2023/12/05 08:27:54;;;;;;;24.08;12.73;;;;;;;-142.91;0.00;100169.13;5048861;28;20231;-79
2023/12/05 08:30:23;;;;;;;20.63;11.95;;;;;;;23.27;0.00;100169.13;5049071;28;20214;-77
2023/12/05 08:32:49;;;;;;;27.00;11.70;;;;;;;23.33;0.00;100169.13;5029474;28;20265;-78
2023/12/05 08:35:16;;;;;;;19.35;9.65;;;;;;;;;;5032927;28;20283;-78
2023/12/05 08:37:44;;;;;;;19.90;11.35;;;;;;;-142.91;0.00;100169.13;5050573;28;20203;-78
2023/12/05 08:40:13;;;;;;;14.18;10.27;;;;;;;23.26;0.00;100169.13;5034010;28;20223;-80
2023/12/05 08:42:42;;;;;;;19.30;10.13;;;;;;;-142.91;0.00;100169.13;5033822;28;20243;-78
2023/12/05 08:45:09;;;;;;;14.52;9.57;;;;;;;;;;5050456;28;20203;-76
2023/12/05 08:47:36;;;;;;;19.02;10.25;;;;;;;-142.91;0.00;100169.13;5048469;28;20230;-77
2023/12/05 08:50:04;;;;;;;18.38;11.35;;;;;;;-142.91;0.00;100169.13;5047563;28;20213;-77
2023/12/05 08:52:31;;;;;;;14.43;9.93;;;;;;;23.25;0.00;100169.13;5048014;28;20293;-77
2023/12/05 08:55:00;;;;;;;14.57;8.85;;;;;;;-142.91;0.00;100169.13;5015083;28;20199;-78
2023/12/05 08:57:28;;;;;;;18.17;10.48;;;;;;;;;;5047514;28;20210;-78
2023/12/05 08:59:55;;;;;;;16.25;8.52;;;;;;;;;;5048847;28;20286;-81
2023/12/05 09:02:24;;;;;;;11.48;7.20;;;;;;;;;;5032482;28;21620;-75
2023/12/05 09:04:50;;;;;;;12.75;7.55;;;;;;;23.25;0.00;100169.13;5049202;28;20199;-78
2023/12/05 09:07:17;;;;;;;16.65;8.43;;;;;;;23.25;0.00;100169.13;5048242;28;20242;-79
2023/12/05 09:09:44;;;;;;;14.48;8.02;;;;;;;23.26;0.00;100169.13;5048363;28;20300;-75
2023/12/05 09:12:10;;;;;;;12.30;7.80;;;;;;;;;;5047705;28;20253;-79
2023/12/05 09:14:38;;;;;;;11.13;7.35;;;;;;;23.25;0.00;100169.13;5049563;28;20290;-78
2023/12/05 09:17:05;;;;;;;13.27;8.80;;;;;;;23.26;0.00;100169.13;5047447;28;20238;-78
2023/12/05 09:19:31;;;;;;;15.02;8.32;;;;;;;23.26;0.00;100169.13;5047141;28;20226;-78
2023/12/05 09:21:58;;;;;;;11.65;9.07;;;;;;;23.25;0.00;100169.13;5047764;28;20622;-79
2023/12/05 09:24:25;;;;;;;22.13;8.77;;;;;;;23.25;0.00;100169.13;5046840;28;20210;-77
2023/12/05 09:26:53;;;;;;;16.33;8.73;;;;;;;;;;5029275;28;20257;-78
2023/12/05 09:29:21;;;;;;;14.20;8.48;;;;;;;23.33;0.00;100169.13;5028189;28;20225;-83
2023/12/05 09:31:49;;;;;;;14.50;7.97;;;;;;;;;;5045675;28;20670;-73
2023/12/05 09:34:15;;;;;;;15.07;8.13;;;;;;;;;;5045045;28;20946;-73
2023/12/05 09:36:42;;;;;;;10.65;8.60;;;;;;;;;;5046038;28;20752;-74
2023/12/05 09:39:10;;;;;;;12.07;8.07;;;;;;;;;;5045474;28;20310;-77
2023/12/05 09:41:39;;;;;;;15.43;8.80;;;;;;;;;;5046289;28;20227;-75
2023/12/05 09:44:05;;;;;;;12.52;8.55;;;;;;;;;;5044771;28;20195;-78
2023/12/05 09:46:37;;;;;;;15.85;8.70;;;;;;;-142.91;0.00;100169.13;5046391;28;20715;-76
2023/12/05 09:49:12;;;;;;;10.82;8.52;;;;;;;23.27;0.00;100169.13;5058588;28;20206;-76
2023/12/05 09:51:43;;;;;;;9.93;8.07;;;;;;;23.26;0.00;100169.13;5048991;28;20256;-79
2023/12/05 09:54:13;;;;;;;10.00;8.63;;;;;;;-142.91;0.00;100169.13;5034841;28;20732;-81
2023/12/05 09:56:40;;;;;;;19.65;8.98;;;;;;;23.29;0.00;100169.13;5047130;28;20229;-76
2023/12/05 09:59:07;;;;;;;15.23;7.80;;;;;;;23.25;0.00;100169.13;5045638;28;20305;-78
2023/12/05 10:01:35;;;;;;;14.32;8.25;;;;;;;;;;5046750;28;20210;-77
2023/12/05 10:04:02;;;;;;;11.30;8.07;;;;;;;;;;5043960;28;20226;-77
2023/12/05 10:06:33;;;;;;;14.73;7.78;;;;;;;-142.91;0.00;100169.13;5046396;28;20226;-79
2023/12/05 10:09:00;;;;;;;12.95;8.10;;;;;;;;;;5028542;28;20191;-77
2023/12/05 10:11:28;;;;;;;13.25;7.90;;;;;;;23.26;0.00;100169.13;5045806;28;20281;-76
2023/12/05 10:13:54;;;;;;;15.43;7.93;;;;;;;;;;5046091;28;20209;-76
2023/12/05 10:16:22;;;;;;;16.00;8.07;;;;;;;;;;5045911;28;20306;-75
2023/12/05 10:18:49;;;;;;;12.95;8.50;;;;;;;23.27;0.00;100169.13;5046881;28;20211;-75
2023/12/05 10:21:27;;;;;;;15.25;8.30;;;;;;;23.25;0.00;100169.13;5048333;28;20230;-82
2023/12/05 10:24:02;;;;;;;9.88;7.05;;;;;;;23.25;0.00;100169.13;5064538;28;20230;-82
2023/12/05 10:26:29;;;;;;;12.45;8.13;;;;;;;23.25;0.00;100169.13;5059565;28;20198;-77
2023/12/05 10:28:57;;;;;;;14.18;8.93;;;;;;;-142.91;0.00;100169.13;5057000;28;20263;-77
2023/12/05 10:31:24;;;;;;;14.38;8.98;;;;;;;;;;5035009;28;20258;-76
2023/12/05 10:33:50;;;;;;;18.15;10.40;;;;;;;;;;5029528;28;20640;-77
2023/12/05 10:36:18;;;;;;;20.08;9.77;;;;;;;;;;5049430;28;20202;-77
2023/12/05 10:38:45;;;;;;;17.25;9.93;;;;;;;-142.91;0.00;100169.13;5052268;28;20199;-77
2023/12/05 10:41:28;;;;;;;12.93;8.10;;;;;;;-142.91;0.00;100169.13;5050684;28;20203;-78
2023/12/05 10:43:55;;;;;;;8.55;7.25;;;;;;;23.41;0.00;100169.13;5064300;28;20202;-76
2023/12/05 10:46:22;;;;;;;8.02;6.65;;;;;;;23.25;0.00;100169.13;5055136;28;20594;-76
2023/12/05 10:48:49;;;;;;;9.77;7.38;;;;;;;23.26;0.00;100169.13;5049643;28;20246;-76
2023/12/05 10:51:16;;;;;;;13.40;8.40;;;;;;;;;;5062327;28;20285;-79
2023/12/05 10:53:43;;;;;;;11.38;7.63;;;;;;;-142.91;0.00;100169.13;5062442;28;20222;-79
2023/12/05 10:56:16;;;;;;;13.85;7.78;;;;;;;-142.91;0.00;100169.13;5063119;28;20245;-78
2023/12/05 10:58:44;;;;;;;14.63;9.13;;;;;;;23.33;0.00;100169.13;5059159;28;20226;-79
2023/12/05 11:01:13;;;;;;;9.02;7.22;;;;;;;23.26;0.00;100169.13;5041551;28;20219;-77
2023/12/05 11:03:41;;;;;;;10.98;7.82;;;;;;;-142.91;0.00;100169.13;5062618;28;20257;-79
2023/12/05 11:06:09;;;;;;;8.98;6.60;;;;;;;23.25;0.00;100169.13;5063788;28;20694;-78
2023/12/05 11:08:35;;;;;;;6.93;6.28;;;;;;;;;;5061973;28;20884;-76
2023/12/05 11:11:04;;;;;;;9.50;5.72;;;;;;;23.25;0.00;100169.13;5039983;28;20205;-78
2023/12/05 11:13:33;;;;;;;10.65;6.03;;;;;;;;;;5061410;28;20285;-76
2023/12/05 11:16:08;;;;;;;6.05;5.45;;;;;;;23.25;0.00;100169.13;5062824;28;20204;-77
2023/12/05 11:18:37;;;;;;;10.15;5.60;;;;;;;-142.91;0.00;100169.13;5068438;28;20269;-76
2023/12/05 11:21:17;;;;;;;8.10;5.03;;;;;;;-142.91;0.00;100169.13;5054385;28;20250;-77
2023/12/05 11:24:00;;;;;;;9.00;5.60;;;;;;;23.26;0.00;100169.13;5050770;28;20254;-77
2023/12/05 11:26:54;;;;;;;6.28;4.90;;;;;;;-142.91;0.00;100169.13;5051312;28;20211;-76
2023/12/05 11:29:37;;;;;;;8.23;5.53;;;;;;;-142.91;0.00;100169.13;5029693;28;20808;-75
2023/12/05 11:32:14;;;;;;;6.45;5.65;;;;;;;-142.91;0.00;100169.13;5049431;28;20246;-75
2023/12/05 11:34:59;;;;;;;8.73;5.88;;;;;;;23.33;0.00;100169.13;5045888;28;20306;-75
2023/12/05 11:37:41;;;;;;;15.82;5.88;;;;;;;23.25;0.00;100169.13;5052916;28;20685;-75
2023/12/05 11:40:08;;;;;;;11.27;6.80;;;;;;;-142.91;0.00;100169.13;5031611;28;20305;-77
2023/12/05 11:42:36;;;;;;;10.00;5.68;;;;;;;23.33;0.00;100169.13;5051568;28;20740;-78
2023/12/05 11:45:17;;;;;;;6.15;5.55;;;;;;;;;;5044432;28;20199;-76
2023/12/05 11:47:47;;;;;;;6.03;5.43;;;;;;;23.33;0.00;100169.13;5046818;28;20199;-75
2023/12/05 11:50:17;;;;;;;7.18;6.10;;;;;;;-142.91;0.00;100169.13;5047506;28;20281;-79
2023/12/05 11:52:44;;;;;;;6.22;5.50;;;;;;;;;;5047624;28;20230;-77
2023/12/05 11:55:12;;;;;;;7.63;6.05;;;;;;;;;;5039210;28;20975;-79